createdAt,value
2023-09-02T00:00:57.496Z,16.83
2023-09-02T00:03:24.734Z,16.78
2023-09-02T00:05:52.073Z,16.91
2023-09-02T00:08:19.393Z,16.42
2023-09-02T00:10:46.679Z,16.91
2023-09-02T00:13:13.966Z,16.83
2023-09-02T00:15:42.529Z,16.79
2023-09-02T00:18:09.908Z,16.41
2023-09-02T00:20:37.177Z,16.77
2023-09-02T00:23:04.674Z,16.73
2023-09-02T00:25:31.966Z,16.32
2023-09-02T00:27:59.230Z,16.71
2023-09-02T00:30:27.250Z,16.49
2023-09-02T00:32:54.453Z,16.67
2023-09-02T00:35:21.980Z,16.21
2023-09-02T00:37:49.268Z,16.57
2023-09-02T00:40:19.547Z,16.48
2023-09-02T00:42:49.222Z,16.64
2023-09-02T00:45:17.329Z,16.67
2023-09-02T00:47:44.809Z,16.69
2023-09-02T00:50:12.080Z,16.25
2023-09-02T00:52:39.390Z,16.14
2023-09-02T00:55:07.222Z,16.71
2023-09-02T00:57:34.850Z,16.69
2023-09-02T01:00:05.106Z,16.55
2023-09-02T01:02:35.279Z,16.29
2023-09-02T01:05:03.938Z,16.67
2023-09-02T01:07:34.632Z,16.65
2023-09-02T01:10:03.581Z,15.83
2023-09-02T01:12:34.984Z,16.57
2023-09-02T01:15:02.522Z,16.59
2023-09-02T01:17:36.157Z,16.58
2023-09-02T01:20:09.151Z,16.57
2023-09-02T01:22:57.659Z,16.53
2023-09-02T01:25:43.811Z,16.47
2023-09-02T01:28:22.053Z,16.30
2023-09-02T01:30:54.353Z,16.57
2023-09-02T01:33:23.030Z,16.56
2023-09-02T01:35:52.377Z,16.20
2023-09-02T01:38:22.546Z,16.61
2023-09-02T01:40:52.240Z,16.32
2023-09-02T01:43:22.402Z,16.78
2023-09-02T01:45:52.161Z,16.84
2023-09-02T01:48:20.489Z,16.93
2023-09-02T01:50:48.731Z,16.47
2023-09-02T01:53:16.998Z,16.98
2023-09-02T01:55:47.139Z,16.37
2023-09-02T01:58:16.966Z,17.02
2023-09-02T02:00:44.345Z,17.16
2023-09-02T02:03:20.926Z,17.11
2023-09-02T02:05:54.731Z,17.17
2023-09-02T02:08:33.810Z,17.02
2023-09-02T02:11:03.681Z,17.19
2023-09-02T02:13:30.917Z,16.68
2023-09-02T02:15:58.964Z,17.16
2023-09-02T02:18:26.484Z,16.77
2023-09-02T02:21:12.989Z,16.96
2023-09-02T02:23:40.280Z,16.86
2023-09-02T02:26:07.946Z,16.66
2023-09-02T02:28:35.396Z,16.89
2023-09-02T02:31:02.653Z,16.86
2023-09-02T02:33:29.926Z,16.77
2023-09-02T02:35:57.212Z,16.65
2023-09-02T02:38:24.480Z,15.91
2023-09-02T02:40:51.814Z,16.66
2023-09-02T02:43:25.504Z,16.77
2023-09-02T02:45:56.053Z,16.70
2023-09-02T02:48:28.252Z,16.73
2023-09-02T02:50:56.110Z,16.77
2023-09-02T02:53:24.282Z,16.91
2023-09-02T02:55:53.755Z,16.74
2023-09-02T02:58:21.232Z,17.13
2023-09-02T03:00:51.316Z,17.15
2023-09-02T03:03:22.738Z,17.14
2023-09-02T03:05:50.407Z,17.19
2023-09-02T03:08:17.643Z,17.46
2023-09-02T03:10:46.441Z,17.60
2023-09-02T03:13:14.377Z,17.55
2023-09-02T03:15:50.458Z,17.39
2023-09-02T03:18:19.220Z,17.49
2023-09-02T03:20:46.474Z,17.53
2023-09-02T03:23:14.278Z,17.64
2023-09-02T03:25:42.953Z,17.29
2023-09-02T03:28:10.767Z,17.79
2023-09-02T03:30:38.801Z,17.55
2023-09-02T03:33:09.329Z,18.03
2023-09-02T03:35:40.413Z,17.53
2023-09-02T03:38:07.961Z,18.09
2023-09-02T03:40:35.536Z,18.41
2023-09-02T03:43:02.876Z,18.47
2023-09-02T03:45:30.107Z,18.58
2023-09-02T03:47:57.793Z,18.35
2023-09-02T03:50:28.295Z,18.36
2023-09-02T03:52:56.865Z,18.97
2023-09-02T03:55:24.097Z,18.92
2023-09-02T03:57:53.127Z,19.07
2023-09-02T04:00:20.618Z,19.16
2023-09-02T04:02:49.329Z,19.31
2023-09-02T04:05:17.018Z,19.53
2023-09-02T04:07:44.300Z,19.83
2023-09-02T04:10:11.552Z,19.92
2023-09-02T04:12:38.887Z,20.13
2023-09-02T04:15:06.724Z,20.58
2023-09-02T04:17:34.050Z,21.24
2023-09-02T04:20:05.586Z,21.79
2023-09-02T04:22:33.733Z,22.25
2023-09-02T04:25:01.267Z,21.94
2023-09-02T04:27:28.648Z,21.82
2023-09-02T04:29:56.770Z,21.75
2023-09-02T04:32:24.300Z,22.02
2023-09-02T04:34:51.955Z,21.85
2023-09-02T04:37:19.933Z,22.81
2023-09-02T04:39:47.546Z,24.81
2023-09-02T04:42:15.486Z,26.35
2023-09-02T04:44:43.330Z,26.32
2023-09-02T04:47:11.671Z,26.01
2023-09-02T04:49:39.903Z,25.31
2023-09-02T04:52:07.743Z,24.19
2023-09-02T04:54:35.174Z,23.96
2023-09-02T04:57:02.552Z,22.96
2023-09-02T04:59:30.124Z,22.71
2023-09-02T05:01:57.382Z,22.30
2023-09-02T05:04:24.794Z,22.02
2023-09-02T05:06:52.025Z,21.76
2023-09-02T05:09:20.296Z,21.89
2023-09-02T05:11:47.830Z,21.72
2023-09-02T05:14:15.105Z,21.71
2023-09-02T05:16:43.436Z,21.29
2023-09-02T05:19:10.846Z,21.72
2023-09-02T05:21:38.593Z,21.90
2023-09-02T05:24:06.171Z,21.97
2023-09-02T05:26:33.498Z,22.29
2023-09-02T05:29:00.910Z,23.06
2023-09-02T05:31:28.437Z,23.70
2023-09-02T05:33:55.726Z,24.16
2023-09-02T05:36:23.144Z,25.38
2023-09-02T05:38:50.444Z,26.20
2023-09-02T05:41:17.611Z,26.17
2023-09-02T05:43:44.914Z,26.58
2023-09-02T05:46:12.189Z,26.17
2023-09-02T05:48:39.457Z,25.69
2023-09-02T05:51:06.904Z,25.97
2023-09-02T05:53:34.163Z,25.51
2023-09-02T05:56:01.367Z,25.00
2023-09-02T05:58:28.876Z,24.55
2023-09-02T06:00:56.315Z,24.50
2023-09-02T06:03:23.778Z,23.94
2023-09-02T06:05:51.269Z,24.15
2023-09-02T06:08:19.806Z,23.69
2023-09-02T06:10:58.289Z,23.75
2023-09-02T06:13:25.733Z,23.53
2023-09-02T06:15:53.132Z,23.38
2023-09-02T06:18:20.583Z,23.24
2023-09-02T06:20:47.816Z,23.15
2023-09-02T06:23:15.063Z,23.08
2023-09-02T06:25:42.238Z,23.09
2023-09-02T06:28:10.270Z,23.03
2023-09-02T06:30:38.334Z,23.05
2023-09-02T06:33:05.828Z,22.71
2023-09-02T06:35:33.821Z,22.99
2023-09-02T06:38:01.039Z,22.91
2023-09-02T06:42:58.168Z,22.35
2023-09-02T06:45:26.987Z,22.82
2023-09-02T06:47:54.291Z,22.57
2023-09-02T06:50:22.081Z,22.21
2023-09-02T06:52:49.532Z,22.13
2023-09-02T06:55:16.748Z,22.48
2023-09-02T06:57:44.436Z,22.41
2023-09-02T07:00:13.077Z,22.01
2023-09-02T07:02:40.901Z,22.23
2023-09-02T07:05:08.346Z,21.74
2023-09-02T07:07:37.992Z,22.25
2023-09-02T07:10:07.683Z,22.16
2023-09-02T07:12:35.011Z,22.72
2023-09-02T07:15:02.304Z,22.95
2023-09-02T07:17:33.078Z,23.08
2023-09-02T07:20:00.433Z,23.28
2023-09-02T07:22:27.821Z,23.52
2023-09-02T07:24:55.072Z,23.28
2023-09-02T07:27:22.412Z,23.70
2023-09-02T07:29:49.693Z,23.53
2023-09-02T07:32:17.059Z,23.31
2023-09-02T07:34:44.347Z,23.09
2023-09-02T07:37:11.686Z,22.53
2023-09-02T07:39:38.896Z,22.53
2023-09-02T07:42:07.284Z,22.50
2023-09-02T07:44:34.741Z,22.39
2023-09-02T07:47:01.979Z,22.47
2023-09-02T07:49:29.204Z,22.55
2023-09-02T07:51:56.711Z,22.26
2023-09-02T07:54:24.037Z,22.74
2023-09-02T07:56:51.384Z,22.78
2023-09-02T07:59:18.736Z,22.43
2023-09-02T08:01:45.963Z,22.71
2023-09-02T08:04:13.169Z,22.66
2023-09-02T08:06:43.515Z,22.52
2023-09-02T08:09:10.782Z,22.44
2023-09-02T08:11:38.141Z,22.37
2023-09-02T08:14:05.426Z,22.28
2023-09-02T08:16:32.661Z,22.23
2023-09-02T08:18:59.880Z,22.20
2023-09-02T08:21:27.056Z,22.04
2023-09-02T08:23:54.238Z,21.96
2023-09-02T08:26:21.792Z,22.00
2023-09-02T08:28:48.980Z,21.87
2023-09-02T08:31:19.880Z,22.02
2023-09-02T08:33:47.480Z,22.05
2023-09-02T08:36:18.450Z,22.05
2023-09-02T08:38:45.841Z,22.03
2023-09-02T08:41:27.840Z,22.13
2023-09-02T08:43:56.445Z,22.31
2023-09-02T08:46:30.004Z,22.44
2023-09-02T08:48:58.112Z,22.53
2023-09-02T08:51:29.402Z,22.54
2023-09-02T08:53:57.880Z,22.55
2023-09-02T08:56:26.906Z,22.38
2023-09-02T08:58:55.416Z,21.50
2023-09-02T09:01:24.127Z,21.95
2023-09-02T09:03:56.607Z,22.38
2023-09-02T09:06:25.362Z,22.45
2023-09-02T09:08:55.425Z,21.98
2023-09-02T09:11:24.265Z,22.56
2023-09-02T09:13:54.842Z,22.59
2023-09-02T09:16:26.162Z,22.67
2023-09-02T09:18:53.876Z,22.81
2023-09-02T09:21:21.518Z,22.93
2023-09-02T09:23:49.033Z,22.99
2023-09-02T09:26:16.882Z,22.90
2023-09-02T09:28:55.097Z,22.79
2023-09-02T09:31:23.323Z,22.59
2023-09-02T09:33:55.390Z,22.39
2023-09-02T09:36:23.418Z,22.16
2023-09-02T09:38:55.009Z,22.00
2023-09-02T09:41:24.098Z,21.95
2023-09-02T09:44:13.555Z,21.88
2023-09-02T09:46:54.379Z,21.75
2023-09-02T09:49:27.580Z,21.72
2023-09-02T09:52:00.873Z,21.67
2023-09-02T09:54:40.270Z,21.60
2023-09-02T09:57:09.819Z,21.63
2023-09-02T09:59:37.883Z,21.63
2023-09-02T10:02:08.182Z,21.27
2023-09-02T10:04:35.646Z,21.71
2023-09-02T10:07:04.468Z,21.84
2023-09-02T10:09:45.702Z,22.03
2023-09-02T10:12:14.488Z,22.16
2023-09-02T10:14:46.980Z,22.26
2023-09-02T10:17:15.606Z,22.31
2023-09-02T10:19:44.049Z,22.33
2023-09-02T10:22:20.003Z,22.29
2023-09-02T10:25:17.445Z,22.28
2023-09-02T10:27:48.499Z,22.24
2023-09-02T10:30:49.090Z,22.26
2023-09-02T10:33:40.358Z,22.23
2023-09-02T10:36:09.765Z,22.31
2023-09-02T10:38:45.727Z,22.30
2023-09-02T10:41:17.363Z,22.41
2023-09-02T10:43:46.764Z,21.51
2023-09-02T10:46:14.545Z,22.70
2023-09-02T10:48:46.160Z,22.88
2023-09-02T10:51:14.647Z,22.99
2023-09-02T10:53:53.688Z,23.08
2023-09-02T10:56:29.053Z,23.07
2023-09-02T10:58:56.554Z,23.20
2023-09-02T11:01:25.268Z,23.16
2023-09-02T11:03:55.955Z,22.33
2023-09-02T11:06:23.376Z,22.96
2023-09-02T11:08:52.737Z,22.87
2023-09-02T11:11:22.036Z,22.79
2023-09-02T11:14:07.950Z,22.58
2023-09-02T11:16:36.763Z,22.50
2023-09-02T11:19:10.040Z,22.33
2023-09-02T11:21:41.600Z,22.33
2023-09-02T11:24:22.746Z,22.26
2023-09-02T11:26:55.026Z,22.26
2023-09-02T11:29:31.921Z,21.70
2023-09-02T11:32:01.079Z,22.16
2023-09-02T11:34:29.806Z,21.56
2023-09-02T11:36:59.092Z,21.95
2023-09-02T11:39:30.202Z,21.98
2023-09-02T11:42:28.674Z,21.90
2023-09-02T11:45:01.813Z,21.93
2023-09-02T11:47:31.605Z,21.98
2023-09-02T11:49:58.872Z,22.03
2023-09-02T11:52:28.257Z,22.08
2023-09-02T11:54:55.582Z,22.02
2023-09-02T11:57:22.760Z,22.02
2023-09-02T11:59:49.981Z,22.04
2023-09-02T12:02:18.529Z,22.02
2023-09-02T12:04:46.097Z,21.56
2023-09-02T12:07:14.183Z,21.90
2023-09-02T12:09:41.698Z,21.86
2023-09-02T12:12:10.162Z,21.81
2023-09-02T12:14:38.475Z,21.69
2023-09-02T12:17:06.458Z,21.10
2023-09-02T12:19:35.339Z,21.21
2023-09-02T12:22:03.413Z,21.45
2023-09-02T12:24:31.265Z,21.43
2023-09-02T12:26:58.802Z,21.31
2023-09-02T12:29:26.622Z,21.23
2023-09-02T12:31:58.726Z,21.13
2023-09-02T12:34:35.449Z,21.10
2023-09-02T12:37:22.580Z,20.99
2023-09-02T12:39:51.699Z,20.93
2023-09-02T12:42:28.870Z,20.95
2023-09-02T12:45:03.227Z,20.86
2023-09-02T12:47:34.185Z,20.89
2023-09-02T12:50:04.209Z,20.89
2023-09-02T12:52:35.066Z,20.89
2023-09-02T12:55:07.053Z,20.76
2023-09-02T12:57:36.990Z,20.86
2023-09-02T13:00:05.156Z,20.68
2023-09-02T13:02:37.689Z,20.64
2023-09-02T13:05:05.845Z,20.80
2023-09-02T13:07:34.023Z,20.78
2023-09-02T13:10:02.790Z,20.61
2023-09-02T13:12:34.594Z,20.66
2023-09-02T13:15:02.498Z,20.67
2023-09-02T13:17:34.332Z,20.64
2023-09-02T13:20:04.019Z,20.45
2023-09-02T13:22:37.750Z,20.56
2023-09-02T13:25:05.928Z,20.47
2023-09-02T13:27:34.382Z,20.51
2023-09-02T13:30:01.638Z,20.42
2023-09-02T13:32:36.852Z,20.35
2023-09-02T13:35:14.936Z,20.29
2023-09-02T13:37:47.964Z,20.20
2023-09-02T13:40:15.478Z,20.16
2023-09-02T13:42:44.409Z,20.11
2023-09-02T13:45:34.947Z,20.04
2023-09-02T13:48:02.461Z,19.91
2023-09-02T13:50:29.734Z,19.71
2023-09-02T13:52:57.205Z,19.96
2023-09-02T13:55:27.856Z,18.96
2023-09-02T13:57:55.582Z,19.89
2023-09-02T14:00:28.528Z,19.53
2023-09-02T14:02:56.869Z,19.39
2023-09-02T14:05:25.676Z,19.78
2023-09-02T14:07:58.220Z,19.83
2023-09-02T14:10:25.694Z,19.81
2023-09-02T14:12:53.090Z,19.77
2023-09-02T14:15:20.531Z,19.72
2023-09-02T14:17:47.891Z,19.45
2023-09-02T14:20:15.227Z,19.70
2023-09-02T14:22:42.529Z,19.68
2023-09-02T14:25:09.872Z,19.67
2023-09-02T14:27:37.701Z,19.65
2023-09-02T14:30:05.545Z,19.61
2023-09-02T14:32:33.179Z,19.64
2023-09-02T14:35:00.480Z,19.54
2023-09-02T14:37:30.602Z,19.51
2023-09-02T14:39:59.143Z,19.47
2023-09-02T14:42:26.609Z,19.41
2023-09-02T14:45:00.068Z,19.36
2023-09-02T14:47:27.625Z,19.27
2023-09-02T14:49:55.955Z,19.22
2023-09-02T14:52:24.141Z,19.04
2023-09-02T14:54:51.589Z,19.12
2023-09-02T14:57:19.114Z,19.05
2023-09-02T14:59:52.701Z,19.02
2023-09-02T15:02:36.974Z,19.03
2023-09-02T15:05:11.549Z,19.00
2023-09-02T15:07:41.742Z,18.97
2023-09-02T15:10:10.841Z,18.84
2023-09-02T15:12:40.908Z,18.21
2023-09-02T15:15:09.851Z,18.91
2023-09-02T15:17:37.512Z,18.88
2023-09-02T15:20:09.397Z,18.23
2023-09-02T15:22:36.830Z,18.85
2023-09-02T15:25:04.895Z,18.68
2023-09-02T15:27:34.790Z,18.81
2023-09-02T15:30:03.391Z,18.71
2023-09-02T15:32:32.407Z,18.31
2023-09-02T15:34:59.945Z,18.61
2023-09-02T15:37:27.196Z,18.78
2023-09-02T15:39:55.647Z,18.60
2023-09-02T15:42:23.484Z,18.70
2023-09-02T15:44:51.275Z,18.63
2023-09-02T15:47:18.484Z,18.63
2023-09-02T15:49:45.707Z,18.61
2023-09-02T15:52:12.922Z,18.54
2023-09-02T15:54:40.241Z,18.05
2023-09-02T15:57:09.696Z,18.07
2023-09-02T15:59:37.016Z,17.94
2023-09-02T16:02:04.463Z,18.49
2023-09-02T16:04:31.775Z,18.47
2023-09-02T16:06:59.434Z,18.45
2023-09-02T16:09:26.618Z,18.41
2023-09-02T16:11:54.868Z,18.38
2023-09-02T16:14:22.251Z,17.91
2023-09-02T16:16:49.596Z,18.08
2023-09-02T16:19:16.939Z,18.20
2023-09-02T16:21:44.081Z,17.71
2023-09-02T16:24:11.408Z,18.16
2023-09-02T16:26:38.671Z,18.07
2023-09-02T16:29:07.502Z,17.82
2023-09-02T16:31:34.768Z,18.03
2023-09-02T16:34:04.237Z,18.15
2023-09-02T16:36:33.830Z,18.15
2023-09-02T16:39:01.430Z,18.14
2023-09-02T16:41:29.320Z,18.18
2023-09-02T16:44:05.211Z,18.22
2023-09-02T16:46:33.925Z,18.23
2023-09-02T16:49:01.402Z,18.24
2023-09-02T16:51:28.602Z,18.18
2023-09-02T16:53:55.857Z,18.29
2023-09-02T16:56:23.772Z,18.29
2023-09-02T16:58:51.159Z,18.30
2023-09-02T17:01:20.013Z,18.24
2023-09-02T17:03:56.079Z,18.32
2023-09-02T17:06:28.456Z,17.88
2023-09-02T17:08:56.379Z,18.42
2023-09-02T17:11:24.246Z,18.48
2023-09-02T17:13:51.743Z,18.23
2023-09-02T17:16:20.844Z,18.55
2023-09-02T17:18:48.115Z,18.55
2023-09-02T17:21:17.014Z,18.49
2023-09-02T17:23:48.399Z,18.42
2023-09-02T17:26:15.785Z,18.07
2023-09-02T17:28:43.334Z,18.39
2023-09-02T17:31:10.798Z,18.37
2023-09-02T17:33:39.134Z,17.83
2023-09-02T17:36:07.042Z,18.33
2023-09-02T17:38:34.578Z,18.35
2023-09-02T17:41:02.217Z,18.33
2023-09-02T17:43:29.491Z,17.73
2023-09-02T17:45:57.027Z,17.92
2023-09-02T17:48:24.687Z,18.47
2023-09-02T17:50:52.662Z,18.48
2023-09-02T17:53:19.912Z,18.25
2023-09-02T17:55:47.416Z,18.45
2023-09-02T17:58:14.620Z,18.40
2023-09-02T18:00:41.922Z,18.37
2023-09-02T18:03:09.334Z,18.32
2023-09-02T18:05:36.801Z,18.28
2023-09-02T18:08:05.076Z,18.25
2023-09-02T18:10:32.475Z,18.20
2023-09-02T18:12:59.687Z,18.22
2023-09-02T18:15:33.371Z,18.17
2023-09-02T18:18:02.076Z,18.05
2023-09-02T18:20:29.453Z,17.94
2023-09-02T18:22:57.055Z,18.07
2023-09-02T18:25:24.575Z,18.07
2023-09-02T18:27:51.837Z,17.58
2023-09-02T18:30:20.530Z,17.93
2023-09-02T18:32:48.094Z,17.66
2023-09-02T18:35:15.606Z,17.94
2023-09-02T18:37:44.642Z,17.82
2023-09-02T18:40:12.589Z,17.62
2023-09-02T18:42:40.201Z,17.71
2023-09-02T18:45:08.122Z,17.60
2023-09-02T18:47:35.488Z,17.58
2023-09-02T18:50:02.780Z,17.48
2023-09-02T18:52:31.765Z,16.96
2023-09-02T18:54:59.079Z,17.36
2023-09-02T18:57:26.264Z,17.30
2023-09-02T18:59:53.780Z,17.29
2023-09-02T19:02:21.038Z,17.23
2023-09-02T19:04:48.362Z,17.37
2023-09-02T19:07:15.631Z,17.37
2023-09-02T19:09:42.847Z,17.30
2023-09-02T19:12:10.267Z,17.35
2023-09-02T19:14:37.447Z,16.88
2023-09-02T19:17:04.964Z,17.36
2023-09-02T19:19:32.444Z,17.26
2023-09-02T19:21:59.874Z,17.41
2023-09-02T19:24:27.118Z,17.30
2023-09-02T19:26:54.508Z,17.39
2023-09-02T19:29:22.036Z,16.98
2023-09-02T19:31:49.485Z,16.80
2023-09-02T19:34:19.706Z,17.41
2023-09-02T19:36:49.190Z,17.43
2023-09-02T19:39:18.719Z,17.39
2023-09-02T19:41:47.258Z,16.44
2023-09-02T19:44:15.618Z,17.36
2023-09-02T19:46:44.745Z,16.91
2023-09-02T19:49:13.933Z,17.31
2023-09-02T19:51:42.628Z,17.33
2023-09-02T19:54:10.261Z,17.28
2023-09-02T19:56:37.643Z,16.85
2023-09-02T19:59:05.105Z,17.20
2023-09-02T20:01:37.118Z,17.18
2023-09-02T20:04:05.782Z,17.12
2023-09-02T20:06:33.320Z,17.18
2023-09-02T20:09:00.587Z,17.00
2023-09-02T20:11:27.910Z,17.21
2023-09-02T20:13:55.146Z,17.19
2023-09-02T20:16:22.482Z,16.70
2023-09-02T20:18:49.674Z,17.16
2023-09-02T20:21:17.488Z,17.00
2023-09-02T20:23:44.761Z,17.06
2023-09-02T20:26:16.190Z,16.51
2023-09-02T20:28:43.402Z,17.11
2023-09-02T20:31:20.848Z,17.14
2023-09-02T20:33:50.989Z,17.17
2023-09-02T20:36:19.890Z,17.08
2023-09-02T20:38:47.975Z,17.21
2023-09-02T20:41:16.704Z,17.24
2023-09-02T20:43:46.709Z,17.16
2023-09-02T20:46:15.139Z,17.22
2023-09-02T20:48:43.128Z,17.22
2023-09-02T20:51:12.116Z,17.19
2023-09-02T20:53:40.069Z,16.86
2023-09-02T20:56:11.090Z,16.74
2023-09-02T20:58:38.649Z,17.08
2023-09-02T21:01:07.265Z,16.39
2023-09-02T21:03:34.668Z,16.92
2023-09-02T21:06:03.140Z,16.84
2023-09-02T21:08:31.501Z,16.74
2023-09-02T21:11:15.716Z,16.16
2023-09-02T21:13:47.652Z,16.59
2023-09-02T21:16:19.761Z,16.51
2023-09-02T21:18:47.974Z,15.67
2023-09-02T21:21:23.678Z,16.39
2023-09-02T21:23:52.075Z,16.30
2023-09-02T21:26:19.536Z,15.71
2023-09-02T21:28:51.648Z,15.83
2023-09-02T21:31:19.764Z,16.00
2023-09-02T21:33:47.343Z,15.94
2023-09-02T21:36:17.529Z,15.40
2023-09-02T21:38:47.220Z,15.83
2023-09-02T21:41:14.843Z,15.87
2023-09-02T21:43:42.199Z,15.30
2023-09-02T21:46:11.939Z,15.86
2023-09-02T21:48:40.340Z,15.77
2023-09-02T21:51:10.673Z,15.80
2023-09-02T21:53:42.793Z,15.81
2023-09-02T21:56:11.273Z,14.96
2023-09-02T21:58:39.391Z,15.79
2023-09-02T22:01:09.195Z,14.93
2023-09-02T22:03:37.455Z,15.74
2023-09-02T22:06:04.936Z,15.82
2023-09-02T22:08:32.865Z,15.81
2023-09-02T22:11:00.772Z,15.80
2023-09-02T22:13:29.158Z,15.78
2023-09-02T22:15:57.621Z,15.67
2023-09-02T22:18:26.733Z,15.73
2023-09-02T22:20:56.011Z,15.78
2023-09-02T22:23:28.707Z,15.76
2023-09-02T22:26:04.783Z,15.76
2023-09-02T22:28:36.600Z,15.77
2023-09-02T22:31:05.111Z,15.82
2023-09-02T22:33:34.290Z,15.86
2023-09-02T22:36:02.249Z,15.36
2023-09-02T22:38:53.978Z,15.50
2023-09-02T22:41:19.526Z,15.91
2023-09-02T22:43:46.707Z,15.81
2023-09-02T22:46:14.244Z,15.06
2023-09-02T22:48:42.254Z,15.10
2023-09-02T22:51:09.799Z,15.48
2023-09-02T22:53:37.613Z,15.54
2023-09-02T22:56:12.285Z,15.79
2023-09-02T22:58:40.040Z,15.81
2023-09-02T23:01:11.471Z,15.79
2023-09-02T23:03:39.168Z,15.21
2023-09-02T23:06:07.790Z,15.44
2023-09-02T23:08:38.524Z,15.76
2023-09-02T23:11:06.154Z,15.74
2023-09-02T23:13:33.535Z,15.77
2023-09-02T23:16:05.067Z,15.30
2023-09-02T23:18:33.464Z,15.78
2023-09-02T23:21:14.500Z,15.65
2023-09-02T23:23:42.130Z,15.68
2023-09-02T23:26:10.521Z,15.75
2023-09-02T23:28:38.112Z,15.66
2023-09-02T23:31:05.891Z,15.70
2023-09-02T23:33:36.150Z,15.47
2023-09-02T23:36:04.227Z,15.19
2023-09-02T23:38:32.197Z,15.56
2023-09-02T23:40:59.827Z,15.13
2023-09-02T23:43:27.227Z,15.48
2023-09-02T23:45:54.460Z,15.42
2023-09-02T23:48:22.550Z,14.99
2023-09-02T23:50:51.274Z,15.27
2023-09-02T23:53:19.180Z,15.06
2023-09-02T23:55:54.559Z,15.27
2023-09-02T23:58:24.263Z,15.19
